createdAt,value
2022-12-20T00:02:03.007Z,96.30
2022-12-20T00:04:32.377Z,96.30
2022-12-20T00:07:01.605Z,96.40
2022-12-20T00:09:30.889Z,96.20
2022-12-20T00:12:01.420Z,96.30
2022-12-20T00:14:30.644Z,96.30
2022-12-20T00:16:59.964Z,96.30
2022-12-20T00:19:29.113Z,96.30
2022-12-20T00:21:58.276Z,96.20
2022-12-20T00:24:27.553Z,96.30
2022-12-20T00:26:56.757Z,96.30
2022-12-20T00:29:25.956Z,96.40
2022-12-20T00:31:55.250Z,96.40
2022-12-20T00:34:24.524Z,96.40
2022-12-20T00:36:53.693Z,96.30
2022-12-20T00:39:22.949Z,96.50
2022-12-20T00:41:52.202Z,96.40
2022-12-20T00:44:21.447Z,96.30
2022-12-20T00:46:50.699Z,96.40
2022-12-20T00:49:20.719Z,96.50
2022-12-20T00:51:49.992Z,96.40
2022-12-20T00:54:19.217Z,96.30
2022-12-20T00:56:48.447Z,96.20
2022-12-20T00:59:17.670Z,95.90
2022-12-20T01:01:48.644Z,95.60
2022-12-20T01:04:19.129Z,95.50
2022-12-20T01:06:48.862Z,95.30
2022-12-20T01:09:18.059Z,95.10
2022-12-20T01:11:47.376Z,94.90
2022-12-20T01:14:18.408Z,94.70
2022-12-20T01:16:49.687Z,94.60
2022-12-20T01:19:20.306Z,94.50
2022-12-20T01:21:49.818Z,94.10
2022-12-20T01:24:22.408Z,93.90
2022-12-20T01:26:51.727Z,93.80
2022-12-20T01:29:21.104Z,93.60
2022-12-20T01:31:50.307Z,93.80
2022-12-20T01:34:19.595Z,93.40
2022-12-20T01:36:50.635Z,93.10
2022-12-20T01:39:20.198Z,93.10
2022-12-20T01:41:49.936Z,93.00
2022-12-20T01:44:18.970Z,92.60
2022-12-20T01:46:54.402Z,92.60
2022-12-20T01:49:43.678Z,92.40
2022-12-20T01:52:34.570Z,92.30
2022-12-20T01:55:23.184Z,92.30
2022-12-20T01:58:24.785Z,92.10
2022-12-20T02:00:53.986Z,92.10
2022-12-20T02:03:24.549Z,92.00
2022-12-20T02:05:54.679Z,91.80
2022-12-20T02:08:30.212Z,91.90
2022-12-20T02:11:15.327Z,92.00
2022-12-20T02:13:58.995Z,91.80
2022-12-20T02:16:37.762Z,92.00
2022-12-20T02:19:32.627Z,91.80
2022-12-20T02:22:39.438Z,91.70
2022-12-20T02:25:48.032Z,91.70
2022-12-20T02:28:53.712Z,91.70
2022-12-20T02:34:33.358Z,91.80
2022-12-20T02:37:02.600Z,91.80
2022-12-20T02:39:35.418Z,91.80
2022-12-20T02:42:29.183Z,91.90
2022-12-20T02:45:29.186Z,91.70
2022-12-20T02:48:09.239Z,91.80
2022-12-20T02:50:50.598Z,91.70
2022-12-20T02:53:20.926Z,91.60
2022-12-20T02:56:24.012Z,91.50
2022-12-20T02:59:09.393Z,91.40
2022-12-20T03:01:55.859Z,91.30
2022-12-20T03:04:33.504Z,91.20
2022-12-20T03:07:15.984Z,91.10
2022-12-20T03:09:47.342Z,90.90
2022-12-20T03:12:18.280Z,90.90
2022-12-20T03:14:47.447Z,90.60
2022-12-20T03:17:17.057Z,90.60
2022-12-20T03:19:46.329Z,90.30
2022-12-20T03:22:15.504Z,90.10
2022-12-20T03:24:45.154Z,90.00
2022-12-20T03:27:14.518Z,90.00
2022-12-20T03:29:43.805Z,89.60
2022-12-20T03:32:13.528Z,88.80
2022-12-20T03:34:42.731Z,88.50
2022-12-20T03:37:12.618Z,88.20
2022-12-20T03:39:41.997Z,88.10
2022-12-20T03:42:14.468Z,88.30
2022-12-20T03:44:43.909Z,87.80
2022-12-20T03:47:13.189Z,87.10
2022-12-20T03:49:42.389Z,86.80
2022-12-20T03:52:14.756Z,86.40
2022-12-20T03:54:44.039Z,86.60
2022-12-20T03:57:13.256Z,86.30
2022-12-20T03:59:42.462Z,85.60
2022-12-20T04:02:12.010Z,85.40
2022-12-20T04:04:41.370Z,85.20
2022-12-20T04:07:11.420Z,85.10
2022-12-20T04:09:40.609Z,84.40
2022-12-20T04:12:10.074Z,84.30
2022-12-20T04:14:39.332Z,84.30
2022-12-20T04:17:08.620Z,83.60
2022-12-20T04:19:37.848Z,84.00
2022-12-20T04:22:07.051Z,83.40
2022-12-20T04:24:36.238Z,83.60
2022-12-20T04:27:05.546Z,83.00
2022-12-20T04:29:34.755Z,83.10
2022-12-20T04:32:03.978Z,83.00
2022-12-20T04:34:33.179Z,83.60
2022-12-20T04:37:02.331Z,82.50
2022-12-20T04:39:31.471Z,81.60
2022-12-20T04:42:00.671Z,81.30
2022-12-20T04:44:29.785Z,81.00
2022-12-20T04:46:59.235Z,80.50
2022-12-20T04:49:28.544Z,80.30
2022-12-20T04:52:17.504Z,80.30
2022-12-20T04:54:47.516Z,80.10
2022-12-20T04:57:16.695Z,80.10
2022-12-20T04:59:45.861Z,80.10
2022-12-20T05:02:15.204Z,79.10
2022-12-20T05:04:44.467Z,79.20
2022-12-20T05:07:13.703Z,78.60
2022-12-20T05:09:43.015Z,78.80
2022-12-20T05:12:12.261Z,78.10
2022-12-20T05:14:41.387Z,78.00
2022-12-20T05:17:10.757Z,77.70
2022-12-20T05:19:39.931Z,77.80
2022-12-20T05:22:27.268Z,77.40
2022-12-20T05:25:14.748Z,76.50
2022-12-20T05:27:43.902Z,77.40
2022-12-20T05:30:13.779Z,76.90
2022-12-20T05:32:43.174Z,76.40
2022-12-20T05:35:12.671Z,75.40
2022-12-20T05:37:41.833Z,75.30
2022-12-20T05:40:11.952Z,75.00
2022-12-20T05:42:41.278Z,75.30
2022-12-20T05:45:11.110Z,74.60
2022-12-20T05:47:40.440Z,74.30
2022-12-20T05:50:18.272Z,74.20
2022-12-20T05:52:48.312Z,74.50
2022-12-20T05:55:17.739Z,74.40
2022-12-20T05:57:46.892Z,73.50
2022-12-20T06:00:17.160Z,73.60
2022-12-20T06:02:46.512Z,73.30
2022-12-20T06:05:16.069Z,73.70
2022-12-20T06:07:46.001Z,73.80
2022-12-20T06:10:15.144Z,73.10
2022-12-20T06:12:44.346Z,72.70
2022-12-20T06:15:14.409Z,72.90
2022-12-20T06:17:43.764Z,72.30
2022-12-20T06:20:13.416Z,71.50
2022-12-20T06:22:42.665Z,72.30
2022-12-20T06:25:13.354Z,73.20
2022-12-20T06:27:43.608Z,73.00
2022-12-20T06:30:14.971Z,71.00
2022-12-20T06:32:44.244Z,71.10
2022-12-20T06:35:13.906Z,70.90
2022-12-20T06:37:44.423Z,70.50
2022-12-20T06:40:15.868Z,71.00
2022-12-20T06:42:45.588Z,70.30
2022-12-20T06:45:14.918Z,69.60
2022-12-20T06:47:44.089Z,70.20
2022-12-20T06:50:13.367Z,70.60
2022-12-20T06:52:42.531Z,70.00
2022-12-20T06:55:12.716Z,70.00
2022-12-20T06:57:41.904Z,70.20
2022-12-20T07:00:13.652Z,70.80
2022-12-20T07:02:42.958Z,70.50
2022-12-20T07:05:12.284Z,70.70
2022-12-20T07:07:45.182Z,70.40
2022-12-20T07:10:14.972Z,70.10
2022-12-20T07:12:48.204Z,69.50
2022-12-20T07:15:18.509Z,70.00
2022-12-20T07:17:47.662Z,70.60
2022-12-20T07:20:17.652Z,70.50
2022-12-20T07:22:50.070Z,70.40
2022-12-20T07:25:19.311Z,70.00
2022-12-20T07:27:51.935Z,69.30
2022-12-20T07:30:22.450Z,69.10
2022-12-20T07:32:51.624Z,69.00
2022-12-20T07:35:20.745Z,69.10
2022-12-20T07:37:49.846Z,69.10
2022-12-20T07:40:19.121Z,69.00
2022-12-20T07:42:49.112Z,68.90
2022-12-20T07:45:18.544Z,68.80
2022-12-20T07:47:50.023Z,69.00
2022-12-20T07:50:19.213Z,69.70
2022-12-20T07:52:52.160Z,69.60
2022-12-20T07:55:22.142Z,69.20
2022-12-20T07:58:04.467Z,69.20
2022-12-20T08:00:34.968Z,69.00
2022-12-20T08:03:25.006Z,69.10
2022-12-20T08:05:59.401Z,68.60
2022-12-20T08:08:29.168Z,68.50
2022-12-20T08:10:58.325Z,68.40
2022-12-20T08:13:27.917Z,69.30
2022-12-20T08:15:57.135Z,69.30
2022-12-20T08:18:26.271Z,69.20
2022-12-20T08:20:55.431Z,68.40
2022-12-20T08:23:24.604Z,68.40
2022-12-20T08:25:53.895Z,68.60
2022-12-20T08:28:23.183Z,68.60
2022-12-20T08:30:52.380Z,68.70
2022-12-20T08:33:21.560Z,68.80
2022-12-20T08:35:59.228Z,69.30
2022-12-20T08:38:30.166Z,69.50
2022-12-20T08:41:14.753Z,69.20
2022-12-20T08:43:44.871Z,69.00
2022-12-20T08:46:14.699Z,68.90
2022-12-20T08:48:43.869Z,69.70
2022-12-20T08:51:14.021Z,70.00
2022-12-20T08:53:43.332Z,70.10
2022-12-20T08:56:16.869Z,69.20
2022-12-20T08:58:47.363Z,69.70
2022-12-20T09:01:21.563Z,69.60
2022-12-20T09:03:51.529Z,70.00
2022-12-20T09:06:25.801Z,70.20
2022-12-20T09:08:56.665Z,69.70
2022-12-20T09:11:30.663Z,70.00
2022-12-20T09:14:01.175Z,69.70
2022-12-20T09:16:33.934Z,69.90
2022-12-20T09:19:07.366Z,69.80
2022-12-20T09:21:36.867Z,70.10
2022-12-20T09:24:07.141Z,69.70
2022-12-20T09:26:36.564Z,69.60
2022-12-20T09:29:06.303Z,69.50
2022-12-20T09:31:35.505Z,69.60
2022-12-20T09:34:04.739Z,69.70
2022-12-20T09:36:33.858Z,70.20
2022-12-20T09:39:02.956Z,69.20
2022-12-20T09:41:44.292Z,69.40
2022-12-20T09:44:32.917Z,69.50
2022-12-20T09:47:26.407Z,69.40
2022-12-20T09:49:58.844Z,69.80
2022-12-20T09:53:18.562Z,69.90
2022-12-20T09:56:25.257Z,69.90
2022-12-20T09:59:04.015Z,70.40
2022-12-20T10:01:39.982Z,70.10
2022-12-20T10:04:22.057Z,70.50
2022-12-20T10:07:06.868Z,70.50
2022-12-20T10:10:22.875Z,70.80
2022-12-20T10:13:05.952Z,70.90
2022-12-20T10:16:34.712Z,71.40
2022-12-20T10:19:37.056Z,71.70
2022-12-20T10:22:18.452Z,71.70
2022-12-20T10:25:02.910Z,71.60
2022-12-20T10:27:33.036Z,71.80
2022-12-20T10:30:02.894Z,71.80
2022-12-20T10:32:40.995Z,72.00
2022-12-20T10:35:12.953Z,72.10
2022-12-20T10:38:10.624Z,72.40
2022-12-20T10:41:21.328Z,72.70
2022-12-20T10:43:57.817Z,73.10
2022-12-20T10:46:43.906Z,73.40
2022-12-20T10:49:35.955Z,73.40
2022-12-20T10:52:10.780Z,73.50
2022-12-20T10:54:45.155Z,73.80
2022-12-20T10:57:34.507Z,74.00
2022-12-20T11:00:10.525Z,74.20
2022-12-20T11:02:43.089Z,74.40
2022-12-20T11:05:13.255Z,74.60
2022-12-20T11:08:34.916Z,74.60
2022-12-20T11:11:20.904Z,74.80
2022-12-20T11:13:52.666Z,75.00
2022-12-20T11:16:39.608Z,75.20
2022-12-20T11:19:40.498Z,75.30
2022-12-20T11:22:15.712Z,75.70
2022-12-20T11:25:44.848Z,76.00
2022-12-20T11:28:39.901Z,76.20
2022-12-20T11:31:32.622Z,76.50
2022-12-20T11:34:24.077Z,76.60
2022-12-20T11:37:20.662Z,77.00
2022-12-20T11:40:29.260Z,77.00
2022-12-20T11:43:25.956Z,77.30
2022-12-20T11:46:27.613Z,77.70
2022-12-20T11:49:27.672Z,78.00
2022-12-20T11:52:40.446Z,77.90
2022-12-20T11:55:41.006Z,78.20
2022-12-20T11:58:30.782Z,78.70
2022-12-20T12:01:14.937Z,79.80
2022-12-20T12:04:08.336Z,79.70
2022-12-20T12:06:56.087Z,80.00
2022-12-20T12:10:37.819Z,80.70
2022-12-20T12:13:21.368Z,80.60
2022-12-20T12:16:08.588Z,81.20
2022-12-20T12:18:40.918Z,81.50
2022-12-20T12:21:28.380Z,82.20
2022-12-20T12:24:31.338Z,82.20
2022-12-20T12:27:04.075Z,82.30
2022-12-20T12:29:35.889Z,82.80
2022-12-20T12:32:18.880Z,83.60
2022-12-20T12:35:22.512Z,84.50
2022-12-20T12:37:56.614Z,84.70
2022-12-20T12:41:08.362Z,84.50
2022-12-20T12:43:53.369Z,84.90
2022-12-20T12:46:37.416Z,85.20
2022-12-20T12:49:25.399Z,85.40
2022-12-20T12:52:02.815Z,85.50
2022-12-20T12:54:41.030Z,85.70
2022-12-20T12:57:20.571Z,86.00
2022-12-20T12:59:53.484Z,86.40
2022-12-20T13:02:35.483Z,86.60
2022-12-20T13:05:26.447Z,86.70
2022-12-20T13:07:56.409Z,86.20
2022-12-20T13:10:30.464Z,86.50
2022-12-20T13:13:13.687Z,86.70
2022-12-20T13:15:42.786Z,87.30
2022-12-20T13:18:15.103Z,87.30
2022-12-20T13:21:04.795Z,87.80
2022-12-20T13:23:34.155Z,87.50
2022-12-20T13:26:43.243Z,87.60
2022-12-20T13:29:35.582Z,87.90
2022-12-20T13:32:43.152Z,87.70
2022-12-20T13:35:30.614Z,88.20
2022-12-20T13:38:49.205Z,88.60
2022-12-20T13:41:47.993Z,88.50
2022-12-20T13:44:17.090Z,88.70
2022-12-20T13:47:00.557Z,89.00
2022-12-20T13:49:40.567Z,89.30
2022-12-20T13:52:28.868Z,89.20
2022-12-20T13:55:09.306Z,89.30
2022-12-20T13:57:47.167Z,89.20
2022-12-20T14:00:26.728Z,89.80
2022-12-20T14:02:57.443Z,89.50
2022-12-20T14:05:33.262Z,89.80
2022-12-20T14:08:11.652Z,89.80
2022-12-20T14:10:40.847Z,90.00
2022-12-20T14:13:36.193Z,90.20
2022-12-20T14:16:23.411Z,90.20
2022-12-20T14:19:08.611Z,90.20
2022-12-20T14:21:44.017Z,90.60
2022-12-20T14:24:34.533Z,90.50
2022-12-20T14:27:12.739Z,90.40
2022-12-20T14:29:43.158Z,90.50
2022-12-20T14:32:21.947Z,90.60
2022-12-20T14:34:52.970Z,90.90
2022-12-20T14:37:35.127Z,91.00
2022-12-20T14:40:13.616Z,91.10
2022-12-20T14:42:43.381Z,91.00
2022-12-20T14:45:12.494Z,91.00
2022-12-20T14:47:56.762Z,91.10
2022-12-20T14:50:41.888Z,91.30
2022-12-20T14:53:30.690Z,91.20
2022-12-20T14:56:02.690Z,91.10
2022-12-20T14:58:35.237Z,91.00
2022-12-20T15:01:22.617Z,90.90
2022-12-20T15:03:56.193Z,91.00
2022-12-20T15:06:52.145Z,91.00
2022-12-20T15:09:23.519Z,91.10
2022-12-20T15:11:54.562Z,91.20
2022-12-20T15:14:41.780Z,91.50
2022-12-20T15:17:16.847Z,91.40
2022-12-20T15:19:46.384Z,91.70
2022-12-20T15:22:21.642Z,91.80
2022-12-20T15:24:50.816Z,91.90
2022-12-20T15:27:20.000Z,91.80
2022-12-20T15:29:49.370Z,91.90
2022-12-20T15:32:33.057Z,92.20
2022-12-20T15:35:02.506Z,92.30
2022-12-20T15:37:31.675Z,92.30
2022-12-20T15:40:00.841Z,92.20
2022-12-20T15:42:30.176Z,92.30
2022-12-20T15:45:00.537Z,92.30
2022-12-20T15:47:29.775Z,92.40
2022-12-20T15:49:58.938Z,92.50
2022-12-20T15:52:28.188Z,92.30
2022-12-20T15:54:57.362Z,92.50
2022-12-20T15:57:26.552Z,92.50
2022-12-20T16:00:00.270Z,92.90
2022-12-20T16:02:33.678Z,92.70
2022-12-20T16:05:03.203Z,92.80
2022-12-20T16:07:32.733Z,92.70
2022-12-20T16:10:03.010Z,92.70
2022-12-20T16:12:36.812Z,92.90
2022-12-20T16:15:06.663Z,93.00
2022-12-20T16:17:35.749Z,92.90
2022-12-20T16:20:05.194Z,92.90
2022-12-20T16:22:34.356Z,93.00
2022-12-20T16:25:03.520Z,93.10
2022-12-20T16:27:32.611Z,93.10
2022-12-20T16:30:01.805Z,93.10
2022-12-20T16:32:33.912Z,93.30
2022-12-20T16:35:03.031Z,93.30
2022-12-20T16:37:35.787Z,93.30
2022-12-20T16:40:09.047Z,93.30
2022-12-20T16:42:38.122Z,93.40
2022-12-20T16:45:08.082Z,93.40
2022-12-20T16:47:37.229Z,93.40
2022-12-20T16:50:07.676Z,93.50
2022-12-20T16:52:38.543Z,93.40
2022-12-20T16:55:12.739Z,93.30
2022-12-20T16:57:41.883Z,93.20
2022-12-20T17:00:21.985Z,93.30
2022-12-20T17:02:54.926Z,93.30
2022-12-20T17:05:32.411Z,93.10
2022-12-20T17:08:02.609Z,93.10
2022-12-20T17:10:31.831Z,93.20
2022-12-20T17:13:01.138Z,93.20
2022-12-20T17:15:35.535Z,93.30
2022-12-20T17:18:04.769Z,93.40
2022-12-20T17:20:36.964Z,93.30
2022-12-20T17:25:54.557Z,93.40
2022-12-20T17:28:24.413Z,93.30
2022-12-20T17:30:53.569Z,93.30
2022-12-20T17:33:22.710Z,93.40
2022-12-20T17:35:51.898Z,93.40
2022-12-20T17:38:21.075Z,93.40
2022-12-20T17:40:50.259Z,93.50
2022-12-20T17:43:19.422Z,93.50
2022-12-20T17:45:48.654Z,93.60
2022-12-20T17:48:17.808Z,93.60
2022-12-20T17:50:46.985Z,93.50
2022-12-20T17:53:16.239Z,93.70
2022-12-20T17:55:45.540Z,93.70
2022-12-20T17:58:14.638Z,93.70
2022-12-20T18:00:43.851Z,93.70
2022-12-20T18:03:44.980Z,93.80
2022-12-20T18:06:08.391Z,93.70
2022-12-20T18:08:38.301Z,93.70
2022-12-20T18:11:07.724Z,93.80
2022-12-20T18:13:37.556Z,93.90
2022-12-20T18:16:08.619Z,94.10
2022-12-20T18:18:38.271Z,94.10
2022-12-20T18:21:15.076Z,94.00
2022-12-20T18:23:46.023Z,94.00
2022-12-20T18:26:26.284Z,94.00
2022-12-20T18:29:03.619Z,94.00
2022-12-20T18:31:35.844Z,93.90
2022-12-20T18:34:05.883Z,94.00
2022-12-20T18:36:38.507Z,94.10
2022-12-20T18:39:09.688Z,94.10
2022-12-20T18:41:39.661Z,94.10
2022-12-20T18:44:11.103Z,94.10
2022-12-20T18:46:41.761Z,94.20
2022-12-20T18:49:11.654Z,94.30
2022-12-20T18:51:40.819Z,94.20
2022-12-20T18:54:15.601Z,94.10
2022-12-20T18:56:44.780Z,94.20
2022-12-20T18:59:14.336Z,94.20
2022-12-20T19:01:45.000Z,94.20
2022-12-20T19:04:15.969Z,94.20
2022-12-20T19:06:49.291Z,94.00
2022-12-20T19:09:19.019Z,94.00
2022-12-20T19:11:53.039Z,93.90
2022-12-20T19:14:26.179Z,94.00
2022-12-20T19:16:55.704Z,94.10
2022-12-20T19:19:25.033Z,94.20
2022-12-20T19:21:54.222Z,94.30
2022-12-20T19:24:23.529Z,94.30
2022-12-20T19:26:52.707Z,94.20
2022-12-20T19:29:21.979Z,94.40
2022-12-20T19:31:51.275Z,94.40
2022-12-20T19:34:20.596Z,94.40
2022-12-20T19:36:49.837Z,94.50
2022-12-20T19:39:24.204Z,94.40
2022-12-20T19:42:24.655Z,94.40
2022-12-20T19:44:44.009Z,94.30
2022-12-20T19:47:14.194Z,94.60
2022-12-20T19:49:43.504Z,94.30
2022-12-20T19:52:12.964Z,94.30
2022-12-20T19:54:44.071Z,94.30
2022-12-20T19:57:13.681Z,94.40
2022-12-20T19:59:42.904Z,94.40
2022-12-20T20:02:16.053Z,94.50
2022-12-20T20:04:45.394Z,94.40
2022-12-20T20:07:14.660Z,94.60
2022-12-20T20:09:44.228Z,94.50
2022-12-20T20:12:13.522Z,94.50
2022-12-20T20:14:43.456Z,94.40
2022-12-20T20:17:12.600Z,94.40
2022-12-20T20:19:43.510Z,94.40
2022-12-20T20:22:16.455Z,94.50
2022-12-20T20:24:48.429Z,94.50
2022-12-20T20:27:17.543Z,94.50
2022-12-20T20:29:50.065Z,94.50
2022-12-20T20:32:19.395Z,94.60
2022-12-20T20:34:48.620Z,94.50
2022-12-20T20:37:17.779Z,94.60
2022-12-20T20:39:47.159Z,94.70
2022-12-20T20:42:22.963Z,94.70
2022-12-20T20:44:52.677Z,94.80
2022-12-20T20:47:24.915Z,94.80
2022-12-20T20:49:54.024Z,94.90
2022-12-20T20:52:23.255Z,94.90
2022-12-20T20:54:52.347Z,94.90
2022-12-20T20:57:21.401Z,94.80
2022-12-20T20:59:50.691Z,94.80
2022-12-20T21:02:21.987Z,94.90
2022-12-20T21:05:24.620Z,95.00
2022-12-20T21:07:42.185Z,95.00
2022-12-20T21:10:12.315Z,94.90
2022-12-20T21:12:41.689Z,94.90
2022-12-20T21:15:26.606Z,95.00
2022-12-20T21:17:57.019Z,95.10
2022-12-20T21:20:26.695Z,95.20
2022-12-20T21:22:56.191Z,95.10
2022-12-20T21:25:25.443Z,95.40
2022-12-20T21:27:54.777Z,95.40
2022-12-20T21:30:24.520Z,95.50
2022-12-20T21:32:54.083Z,95.50
2022-12-20T21:35:23.724Z,95.30
2022-12-20T21:37:52.897Z,95.30
2022-12-20T21:40:22.145Z,95.40
2022-12-20T21:42:51.406Z,95.50
2022-12-20T21:45:20.619Z,95.60
2022-12-20T21:47:49.785Z,95.60
2022-12-20T21:50:19.115Z,95.60
2022-12-20T21:52:48.268Z,95.70
2022-12-20T21:55:17.540Z,95.70
2022-12-20T21:57:49.055Z,95.80
2022-12-20T22:00:18.787Z,95.80
2022-12-20T22:02:48.177Z,95.90
2022-12-20T22:05:17.583Z,96.00
2022-12-20T22:07:48.417Z,95.90
2022-12-20T22:10:17.761Z,96.00
2022-12-20T22:12:46.929Z,96.00
2022-12-20T22:15:16.173Z,96.30
2022-12-20T22:17:45.875Z,96.30
2022-12-20T22:20:15.148Z,96.40
2022-12-20T22:22:44.354Z,96.20
2022-12-20T22:25:13.573Z,96.50
2022-12-20T22:27:42.772Z,96.50
2022-12-20T22:30:13.583Z,96.50
2022-12-20T22:32:43.183Z,96.60
2022-12-20T22:35:16.379Z,96.60
2022-12-20T22:37:48.534Z,96.70
2022-12-20T22:40:19.605Z,96.80
2022-12-20T22:42:48.835Z,96.80
2022-12-20T22:45:18.073Z,96.60
2022-12-20T22:47:47.447Z,96.80
2022-12-20T22:50:16.833Z,96.80
2022-12-20T22:52:46.099Z,96.90
2022-12-20T22:55:15.363Z,96.90
2022-12-20T22:57:44.630Z,96.80
2022-12-20T23:00:14.857Z,97.00
2022-12-20T23:02:44.625Z,96.70
2022-12-20T23:05:14.117Z,96.70
2022-12-20T23:07:43.996Z,96.70
2022-12-20T23:10:33.199Z,96.70
2022-12-20T23:13:20.430Z,96.80
2022-12-20T23:15:50.163Z,96.80
2022-12-20T23:18:19.378Z,97.00
2022-12-20T23:21:13.139Z,96.90
2022-12-20T23:23:42.335Z,97.20
2022-12-20T23:26:15.065Z,97.00
2022-12-20T23:28:45.080Z,97.00
2022-12-20T23:31:14.446Z,97.20
2022-12-20T23:33:44.279Z,97.20
2022-12-20T23:36:13.867Z,97.30
2022-12-20T23:38:43.211Z,97.10
2022-12-20T23:41:16.305Z,97.30
2022-12-20T23:43:45.506Z,97.30
2022-12-20T23:46:18.734Z,97.50
2022-12-20T23:48:48.185Z,97.40
2022-12-20T23:51:20.946Z,97.40
2022-12-20T23:53:54.177Z,97.50
2022-12-20T23:56:24.995Z,97.50
2022-12-20T23:58:56.274Z,97.70
